sensor_id;sensor_type;location;lat;lon;timestamp;temperature;humidity
488;DHT22;16586;48.976;9.584;2023-02-23T00:00:24;10.50;67.30
488;DHT22;16586;48.976;9.584;2023-02-23T00:02:53;9.60;66.90
488;DHT22;16586;48.976;9.584;2023-02-23T00:05:23;10.30;67.80
488;DHT22;16586;48.976;9.584;2023-02-23T00:07:50;10.00;66.30
488;DHT22;16586;48.976;9.584;2023-02-23T00:10:17;10.20;66.80
488;DHT22;16586;48.976;9.584;2023-02-23T00:12:47;9.80;68.50
488;DHT22;16586;48.976;9.584;2023-02-23T00:15:15;9.90;68.40
488;DHT22;16586;48.976;9.584;2023-02-23T00:17:42;10.70;68.70
488;DHT22;16586;48.976;9.584;2023-02-23T00:20:12;9.70;67.70
488;DHT22;16586;48.976;9.584;2023-02-23T00:22:41;9.90;68.30
488;DHT22;16586;48.976;9.584;2023-02-23T00:25:08;9.70;68.20
488;DHT22;16586;48.976;9.584;2023-02-23T00:27:36;9.80;68.60
488;DHT22;16586;48.976;9.584;2023-02-23T00:30:06;9.70;67.90
488;DHT22;16586;48.976;9.584;2023-02-23T00:32:33;10.00;67.50
488;DHT22;16586;48.976;9.584;2023-02-23T00:35:01;10.60;67.90
488;DHT22;16586;48.976;9.584;2023-02-23T00:37:27;10.10;67.90
488;DHT22;16586;48.976;9.584;2023-02-23T00:39:54;10.30;67.70
488;DHT22;16586;48.976;9.584;2023-02-23T00:42:22;10.70;67.50
488;DHT22;16586;48.976;9.584;2023-02-23T00:44:49;9.80;68.30
488;DHT22;16586;48.976;9.584;2023-02-23T00:47:17;9.90;68.10
488;DHT22;16586;48.976;9.584;2023-02-23T00:49:44;9.70;67.80
488;DHT22;16586;48.976;9.584;2023-02-23T00:52:11;9.90;69.90
488;DHT22;16586;48.976;9.584;2023-02-23T00:54:39;10.40;69.20
488;DHT22;16586;48.976;9.584;2023-02-23T00:57:07;10.20;67.90
488;DHT22;16586;48.976;9.584;2023-02-23T00:59:34;10.40;69.00
488;DHT22;16586;48.976;9.584;2023-02-23T01:02:01;9.90;70.30
488;DHT22;16586;48.976;9.584;2023-02-23T01:04:29;11.00;69.10
488;DHT22;16586;48.976;9.584;2023-02-23T01:06:56;10.40;68.50
488;DHT22;16586;48.976;9.584;2023-02-23T01:09:23;9.80;68.50
488;DHT22;16586;48.976;9.584;2023-02-23T01:11:53;10.00;68.60
488;DHT22;16586;48.976;9.584;2023-02-23T01:14:22;10.40;68.60
488;DHT22;16586;48.976;9.584;2023-02-23T01:16:49;10.30;68.50
488;DHT22;16586;48.976;9.584;2023-02-23T01:19:16;10.30;68.90
488;DHT22;16586;48.976;9.584;2023-02-23T01:21:44;10.20;69.50
488;DHT22;16586;48.976;9.584;2023-02-23T01:24:11;10.20;68.00
488;DHT22;16586;48.976;9.584;2023-02-23T01:26:40;10.10;68.40
488;DHT22;16586;48.976;9.584;2023-02-23T01:29:09;10.70;68.60
488;DHT22;16586;48.976;9.584;2023-02-23T01:31:37;10.00;67.90
488;DHT22;16586;48.976;9.584;2023-02-23T01:34:05;10.20;68.70
488;DHT22;16586;48.976;9.584;2023-02-23T01:36:33;10.00;68.80
488;DHT22;16586;48.976;9.584;2023-02-23T01:39:03;10.50;68.80
488;DHT22;16586;48.976;9.584;2023-02-23T01:41:32;10.50;69.20
488;DHT22;16586;48.976;9.584;2023-02-23T01:44:01;10.10;68.20
488;DHT22;16586;48.976;9.584;2023-02-23T01:46:30;9.90;68.70
488;DHT22;16586;48.976;9.584;2023-02-23T01:48:58;10.10;69.40
488;DHT22;16586;48.976;9.584;2023-02-23T01:51:27;9.90;68.90
488;DHT22;16586;48.976;9.584;2023-02-23T01:53:59;10.20;68.60
488;DHT22;16586;48.976;9.584;2023-02-23T01:56:33;10.20;69.10
488;DHT22;16586;48.976;9.584;2023-02-23T01:59:04;10.10;69.20
488;DHT22;16586;48.976;9.584;2023-02-23T02:01:31;10.10;69.00
488;DHT22;16586;48.976;9.584;2023-02-23T02:04:01;10.40;69.80
488;DHT22;16586;48.976;9.584;2023-02-23T02:06:30;9.90;69.40
488;DHT22;16586;48.976;9.584;2023-02-23T02:09:00;10.10;70.20
488;DHT22;16586;48.976;9.584;2023-02-23T02:11:33;10.40;69.10
488;DHT22;16586;48.976;9.584;2023-02-23T02:14:03;10.00;69.60
488;DHT22;16586;48.976;9.584;2023-02-23T02:17:01;10.00;70.40
488;DHT22;16586;48.976;9.584;2023-02-23T02:19:56;10.70;70.40
488;DHT22;16586;48.976;9.584;2023-02-23T02:22:41;10.20;69.80
488;DHT22;16586;48.976;9.584;2023-02-23T02:25:30;10.80;70.70
488;DHT22;16586;48.976;9.584;2023-02-23T02:28:28;10.20;69.60
488;DHT22;16586;48.976;9.584;2023-02-23T02:31:09;10.10;69.50
488;DHT22;16586;48.976;9.584;2023-02-23T02:33:54;10.10;70.00
488;DHT22;16586;48.976;9.584;2023-02-23T02:39:25;10.00;69.60
488;DHT22;16586;48.976;9.584;2023-02-23T02:42:08;9.90;70.60
488;DHT22;16586;48.976;9.584;2023-02-23T02:44:47;11.20;71.60
488;DHT22;16586;48.976;9.584;2023-02-23T02:47:18;10.20;70.70
488;DHT22;16586;48.976;9.584;2023-02-23T02:49:50;9.90;71.00
488;DHT22;16586;48.976;9.584;2023-02-23T02:52:27;10.00;71.20
488;DHT22;16586;48.976;9.584;2023-02-23T02:55:02;10.00;70.40
488;DHT22;16586;48.976;9.584;2023-02-23T02:57:33;9.90;71.70
488;DHT22;16586;48.976;9.584;2023-02-23T03:00:00;10.00;71.40
488;DHT22;16586;48.976;9.584;2023-02-23T03:02:45;10.30;72.60
488;DHT22;16586;48.976;9.584;2023-02-23T03:05:44;10.10;72.20
488;DHT22;16586;48.976;9.584;2023-02-23T03:08:34;10.50;72.00
488;DHT22;16586;48.976;9.584;2023-02-23T03:11:24;10.30;72.50
488;DHT22;16586;48.976;9.584;2023-02-23T03:14:19;10.20;73.00
488;DHT22;16586;48.976;9.584;2023-02-23T03:17:14;10.30;72.40
488;DHT22;16586;48.976;9.584;2023-02-23T03:20:04;10.20;71.90
488;DHT22;16586;48.976;9.584;2023-02-23T03:22:57;10.40;72.70
488;DHT22;16586;48.976;9.584;2023-02-23T03:25:48;10.10;71.60
488;DHT22;16586;48.976;9.584;2023-02-23T03:28:42;10.30;72.00
488;DHT22;16586;48.976;9.584;2023-02-23T03:31:36;10.00;71.60
488;DHT22;16586;48.976;9.584;2023-02-23T03:34:27;10.00;72.00
488;DHT22;16586;48.976;9.584;2023-02-23T03:37:19;10.00;71.80
488;DHT22;16586;48.976;9.584;2023-02-23T03:40:10;10.20;72.90
488;DHT22;16586;48.976;9.584;2023-02-23T03:42:58;10.20;72.40
488;DHT22;16586;48.976;9.584;2023-02-23T03:45:47;10.20;72.40
488;DHT22;16586;48.976;9.584;2023-02-23T03:48:32;10.00;72.20
488;DHT22;16586;48.976;9.584;2023-02-23T03:51:19;10.50;73.00
488;DHT22;16586;48.976;9.584;2023-02-23T03:54:09;10.10;72.90
488;DHT22;16586;48.976;9.584;2023-02-23T03:56:58;10.20;72.60
488;DHT22;16586;48.976;9.584;2023-02-23T03:59:48;10.20;73.10
488;DHT22;16586;48.976;9.584;2023-02-23T04:02:35;10.00;71.80
488;DHT22;16586;48.976;9.584;2023-02-23T04:05:21;11.00;73.90
488;DHT22;16586;48.976;9.584;2023-02-23T04:08:07;10.00;73.50
488;DHT22;16586;48.976;9.584;2023-02-23T04:10:59;10.40;73.60
488;DHT22;16586;48.976;9.584;2023-02-23T04:13:48;10.30;73.70
488;DHT22;16586;48.976;9.584;2023-02-23T04:16:18;10.10;73.40
488;DHT22;16586;48.976;9.584;2023-02-23T04:18:45;10.50;73.70
488;DHT22;16586;48.976;9.584;2023-02-23T04:21:12;10.10;73.50
488;DHT22;16586;48.976;9.584;2023-02-23T04:23:40;10.00;73.40
488;DHT22;16586;48.976;9.584;2023-02-23T04:26:07;10.00;73.50
488;DHT22;16586;48.976;9.584;2023-02-23T04:28:34;10.00;72.90
488;DHT22;16586;48.976;9.584;2023-02-23T04:31:01;10.10;74.70
488;DHT22;16586;48.976;9.584;2023-02-23T04:33:28;10.50;74.60
488;DHT22;16586;48.976;9.584;2023-02-23T04:35:56;10.10;75.10
488;DHT22;16586;48.976;9.584;2023-02-23T04:38:23;10.20;75.20
488;DHT22;16586;48.976;9.584;2023-02-23T04:40:49;10.10;75.30
488;DHT22;16586;48.976;9.584;2023-02-23T04:43:16;9.40;74.00
488;DHT22;16586;48.976;9.584;2023-02-23T04:45:43;10.00;72.70
488;DHT22;16586;48.976;9.584;2023-02-23T04:48:10;10.40;75.20
488;DHT22;16586;48.976;9.584;2023-02-23T04:50:37;10.00;72.80
488;DHT22;16586;48.976;9.584;2023-02-23T04:53:05;10.00;72.70
488;DHT22;16586;48.976;9.584;2023-02-23T04:55:32;10.90;74.70
488;DHT22;16586;48.976;9.584;2023-02-23T04:57:59;10.30;74.10
488;DHT22;16586;48.976;9.584;2023-02-23T05:00:27;10.20;73.50
488;DHT22;16586;48.976;9.584;2023-02-23T05:02:54;10.10;73.20
488;DHT22;16586;48.976;9.584;2023-02-23T05:05:21;11.00;75.70
488;DHT22;16586;48.976;9.584;2023-02-23T05:07:48;10.20;74.50
488;DHT22;16586;48.976;9.584;2023-02-23T05:10:16;10.10;74.30
488;DHT22;16586;48.976;9.584;2023-02-23T05:12:43;10.40;73.60
488;DHT22;16586;48.976;9.584;2023-02-23T05:15:10;10.10;73.50
488;DHT22;16586;48.976;9.584;2023-02-23T05:17:38;10.20;74.30
488;DHT22;16586;48.976;9.584;2023-02-23T05:20:07;10.10;73.50
488;DHT22;16586;48.976;9.584;2023-02-23T05:22:34;10.40;74.00
488;DHT22;16586;48.976;9.584;2023-02-23T05:25:01;10.80;75.30
488;DHT22;16586;48.976;9.584;2023-02-23T05:27:31;10.30;74.80
488;DHT22;16586;48.976;9.584;2023-02-23T05:29:59;10.80;75.70
488;DHT22;16586;48.976;9.584;2023-02-23T05:32:25;10.90;75.10
488;DHT22;16586;48.976;9.584;2023-02-23T05:34:52;10.30;74.90
488;DHT22;16586;48.976;9.584;2023-02-23T05:37:19;10.80;74.60
488;DHT22;16586;48.976;9.584;2023-02-23T05:39:46;10.10;74.60
488;DHT22;16586;48.976;9.584;2023-02-23T05:42:15;10.60;74.60
488;DHT22;16586;48.976;9.584;2023-02-23T05:44:43;10.50;76.30
488;DHT22;16586;48.976;9.584;2023-02-23T05:47:10;10.50;75.00
488;DHT22;16586;48.976;9.584;2023-02-23T05:49:36;10.90;74.60
488;DHT22;16586;48.976;9.584;2023-02-23T05:52:04;10.60;74.60
488;DHT22;16586;48.976;9.584;2023-02-23T05:54:31;10.70;74.40
488;DHT22;16586;48.976;9.584;2023-02-23T05:56:57;10.60;74.60
488;DHT22;16586;48.976;9.584;2023-02-23T05:59:24;10.70;75.40
488;DHT22;16586;48.976;9.584;2023-02-23T06:01:52;10.50;76.00
488;DHT22;16586;48.976;9.584;2023-02-23T06:04:19;10.90;75.00
488;DHT22;16586;48.976;9.584;2023-02-23T06:06:47;10.50;75.40
488;DHT22;16586;48.976;9.584;2023-02-23T06:09:14;10.60;76.20
488;DHT22;16586;48.976;9.584;2023-02-23T06:11:41;10.40;76.50
488;DHT22;16586;48.976;9.584;2023-02-23T06:14:08;10.30;75.80
488;DHT22;16586;48.976;9.584;2023-02-23T06:16:34;10.50;76.20
488;DHT22;16586;48.976;9.584;2023-02-23T06:19:03;10.00;77.10
488;DHT22;16586;48.976;9.584;2023-02-23T06:21:30;11.10;76.40
488;DHT22;16586;48.976;9.584;2023-02-23T06:23:57;10.10;74.10
488;DHT22;16586;48.976;9.584;2023-02-23T06:26:25;10.10;75.00
488;DHT22;16586;48.976;9.584;2023-02-23T06:28:52;10.50;74.80
488;DHT22;16586;48.976;9.584;2023-02-23T06:31:19;10.20;74.60
488;DHT22;16586;48.976;9.584;2023-02-23T06:33:46;10.30;75.40
488;DHT22;16586;48.976;9.584;2023-02-23T06:36:14;10.40;75.10
488;DHT22;16586;48.976;9.584;2023-02-23T06:38:42;11.30;76.30
488;DHT22;16586;48.976;9.584;2023-02-23T06:41:11;10.30;74.50
488;DHT22;16586;48.976;9.584;2023-02-23T06:43:38;10.60;75.70
488;DHT22;16586;48.976;9.584;2023-02-23T06:46:05;10.40;76.90
488;DHT22;16586;48.976;9.584;2023-02-23T06:48:32;10.40;76.60
488;DHT22;16586;48.976;9.584;2023-02-23T06:51:00;10.40;77.00
488;DHT22;16586;48.976;9.584;2023-02-23T06:53:30;10.50;77.10
488;DHT22;16586;48.976;9.584;2023-02-23T06:55:57;10.30;76.80
488;DHT22;16586;48.976;9.584;2023-02-23T06:58:24;10.30;76.10
488;DHT22;16586;48.976;9.584;2023-02-23T07:00:54;10.20;75.40
488;DHT22;16586;48.976;9.584;2023-02-23T07:03:21;10.50;76.40
488;DHT22;16586;48.976;9.584;2023-02-23T07:05:48;10.80;76.20
488;DHT22;16586;48.976;9.584;2023-02-23T07:08:18;11.50;78.00
488;DHT22;16586;48.976;9.584;2023-02-23T07:10:46;11.60;77.30
488;DHT22;16586;48.976;9.584;2023-02-23T07:13:13;10.30;75.30
488;DHT22;16586;48.976;9.584;2023-02-23T07:15:40;10.80;77.60
488;DHT22;16586;48.976;9.584;2023-02-23T07:18:08;10.40;76.40
488;DHT22;16586;48.976;9.584;2023-02-23T07:20:34;10.40;76.10
488;DHT22;16586;48.976;9.584;2023-02-23T07:23:01;11.00;76.90
488;DHT22;16586;48.976;9.584;2023-02-23T07:25:29;10.40;75.40
488;DHT22;16586;48.976;9.584;2023-02-23T07:28:01;11.20;76.40
488;DHT22;16586;48.976;9.584;2023-02-23T07:30:27;11.00;77.10
488;DHT22;16586;48.976;9.584;2023-02-23T07:32:54;11.20;77.90
488;DHT22;16586;48.976;9.584;2023-02-23T07:35:26;11.10;77.20
488;DHT22;16586;48.976;9.584;2023-02-23T07:38:04;11.50;75.70
488;DHT22;16586;48.976;9.584;2023-02-23T07:40:32;10.90;78.60
488;DHT22;16586;48.976;9.584;2023-02-23T07:43:00;11.40;77.10
488;DHT22;16586;48.976;9.584;2023-02-23T07:45:27;11.10;76.30
488;DHT22;16586;48.976;9.584;2023-02-23T07:47:53;10.80;75.30
488;DHT22;16586;48.976;9.584;2023-02-23T07:50:20;11.20;76.40
488;DHT22;16586;48.976;9.584;2023-02-23T07:52:47;11.20;75.60
488;DHT22;16586;48.976;9.584;2023-02-23T07:55:14;11.40;75.80
488;DHT22;16586;48.976;9.584;2023-02-23T09:14:13;12.50;75.30
488;DHT22;16586;48.976;9.584;2023-02-23T09:16:46;12.60;75.30
488;DHT22;16586;48.976;9.584;2023-02-23T09:19:14;13.10;75.50
488;DHT22;16586;48.976;9.584;2023-02-23T09:21:42;12.90;75.60
488;DHT22;16586;48.976;9.584;2023-02-23T09:24:09;12.80;74.30
488;DHT22;16586;48.976;9.584;2023-02-23T09:26:36;13.00;74.80
488;DHT22;16586;48.976;9.584;2023-02-23T09:29:05;13.40;75.40
488;DHT22;16586;48.976;9.584;2023-02-23T09:31:34;13.20;74.40
488;DHT22;16586;48.976;9.584;2023-02-23T09:34:01;14.60;76.50
488;DHT22;16586;48.976;9.584;2023-02-23T09:36:29;13.60;75.20
488;DHT22;16586;48.976;9.584;2023-02-23T09:39:01;14.20;74.20
488;DHT22;16586;48.976;9.584;2023-02-23T09:41:49;14.30;72.60
488;DHT22;16586;48.976;9.584;2023-02-23T09:44:25;14.10;72.20
488;DHT22;16586;48.976;9.584;2023-02-23T09:47:08;13.70;71.40
488;DHT22;16586;48.976;9.584;2023-02-23T09:50:20;13.90;70.30
488;DHT22;16586;48.976;9.584;2023-02-23T09:53:11;15.60;72.10
488;DHT22;16586;48.976;9.584;2023-02-23T10:03:38;14.30;71.20
488;DHT22;16586;48.976;9.584;2023-02-23T10:06:27;14.50;71.20
488;DHT22;16586;48.976;9.584;2023-02-23T10:20:16;15.70;69.30
488;DHT22;16586;48.976;9.584;2023-02-23T10:23:05;16.10;69.70
488;DHT22;16586;48.976;9.584;2023-02-23T10:25:40;16.40;68.20
488;DHT22;16586;48.976;9.584;2023-02-23T10:28:12;16.00;67.20
488;DHT22;16586;48.976;9.584;2023-02-23T10:30:41;16.10;67.20
488;DHT22;16586;48.976;9.584;2023-02-23T10:33:23;15.70;66.00
488;DHT22;16586;48.976;9.584;2023-02-23T10:35:57;15.70;68.10
488;DHT22;16586;48.976;9.584;2023-02-23T10:38:26;15.60;66.90
488;DHT22;16586;48.976;9.584;2023-02-23T10:40:54;15.90;65.60
488;DHT22;16586;48.976;9.584;2023-02-23T10:43:21;15.60;65.60
488;DHT22;16586;48.976;9.584;2023-02-23T10:45:50;15.70;69.10
488;DHT22;16586;48.976;9.584;2023-02-23T10:48:21;15.90;66.90
488;DHT22;16586;48.976;9.584;2023-02-23T10:50:49;16.10;65.90
488;DHT22;16586;48.976;9.584;2023-02-23T10:53:22;16.20;66.70
488;DHT22;16586;48.976;9.584;2023-02-23T10:56:00;16.30;65.30
488;DHT22;16586;48.976;9.584;2023-02-23T11:01:08;18.10;67.30
488;DHT22;16586;48.976;9.584;2023-02-23T11:03:38;18.70;67.50
488;DHT22;16586;48.976;9.584;2023-02-23T11:06:06;19.60;65.40
488;DHT22;16586;48.976;9.584;2023-02-23T11:08:53;20.50;63.30
488;DHT22;16586;48.976;9.584;2023-02-23T11:11:26;20.90;58.20
488;DHT22;16586;48.976;9.584;2023-02-23T11:13:57;23.60;61.60
488;DHT22;16586;48.976;9.584;2023-02-23T11:16:27;22.80;53.70
488;DHT22;16586;48.976;9.584;2023-02-23T11:18:56;23.80;52.30
488;DHT22;16586;48.976;9.584;2023-02-23T11:21:25;23.90;49.20
488;DHT22;16586;48.976;9.584;2023-02-23T11:23:56;23.50;47.50
488;DHT22;16586;48.976;9.584;2023-02-23T11:26:28;23.00;48.70
488;DHT22;16586;48.976;9.584;2023-02-23T11:28:57;22.90;48.90
488;DHT22;16586;48.976;9.584;2023-02-23T11:31:29;22.40;47.10
488;DHT22;16586;48.976;9.584;2023-02-23T11:34:00;22.60;48.10
488;DHT22;16586;48.976;9.584;2023-02-23T11:36:32;22.50;48.00
488;DHT22;16586;48.976;9.584;2023-02-23T11:39:06;22.20;46.60
488;DHT22;16586;48.976;9.584;2023-02-23T11:41:34;22.30;47.70
488;DHT22;16586;48.976;9.584;2023-02-23T11:44:02;21.60;48.60
488;DHT22;16586;48.976;9.584;2023-02-23T11:46:32;22.80;50.10
488;DHT22;16586;48.976;9.584;2023-02-23T11:49:02;21.00;47.20
488;DHT22;16586;48.976;9.584;2023-02-23T11:51:33;20.70;47.60
488;DHT22;16586;48.976;9.584;2023-02-23T11:54:04;20.30;48.00
488;DHT22;16586;48.976;9.584;2023-02-23T11:56:34;20.00;48.80
488;DHT22;16586;48.976;9.584;2023-02-23T11:59:04;19.70;48.30
488;DHT22;16586;48.976;9.584;2023-02-23T12:01:40;19.50;50.00
488;DHT22;16586;48.976;9.584;2023-02-23T12:04:21;19.50;50.40
488;DHT22;16586;48.976;9.584;2023-02-23T12:06:50;19.60;51.60
488;DHT22;16586;48.976;9.584;2023-02-23T12:09:27;19.70;50.10
488;DHT22;16586;48.976;9.584;2023-02-23T12:11:59;19.90;51.70
488;DHT22;16586;48.976;9.584;2023-02-23T12:14:32;19.90;51.10
488;DHT22;16586;48.976;9.584;2023-02-23T12:17:05;20.00;50.70
488;DHT22;16586;48.976;9.584;2023-02-23T12:22:53;20.10;50.10
488;DHT22;16586;48.976;9.584;2023-02-23T12:25:27;20.20;50.60
488;DHT22;16586;48.976;9.584;2023-02-23T12:28:02;20.00;48.50
488;DHT22;16586;48.976;9.584;2023-02-23T12:30:40;19.50;46.40
488;DHT22;16586;48.976;9.584;2023-02-23T12:33:12;21.30;49.80
488;DHT22;16586;48.976;9.584;2023-02-23T12:35:46;19.40;48.10
488;DHT22;16586;48.976;9.584;2023-02-23T12:38:21;19.10;49.80
488;DHT22;16586;48.976;9.584;2023-02-23T12:40:58;17.00;49.90
488;DHT22;16586;48.976;9.584;2023-02-23T12:43:34;19.20;52.90
488;DHT22;16586;48.976;9.584;2023-02-23T12:46:08;19.80;53.80
488;DHT22;16586;48.976;9.584;2023-02-23T12:48:44;18.00;52.20
488;DHT22;16586;48.976;9.584;2023-02-23T12:51:20;17.70;50.70
488;DHT22;16586;48.976;9.584;2023-02-23T12:53:51;18.00;52.40
488;DHT22;16586;48.976;9.584;2023-02-23T12:56:33;16.90;53.30
488;DHT22;16586;48.976;9.584;2023-02-23T12:59:22;17.40;54.20
488;DHT22;16586;48.976;9.584;2023-02-23T13:02:14;16.90;53.20
488;DHT22;16586;48.976;9.584;2023-02-23T13:04:56;17.00;53.30
488;DHT22;16586;48.976;9.584;2023-02-23T13:07:32;17.00;53.00
488;DHT22;16586;48.976;9.584;2023-02-23T13:10:11;17.50;53.20
488;DHT22;16586;48.976;9.584;2023-02-23T13:12:51;17.40;53.10
488;DHT22;16586;48.976;9.584;2023-02-23T13:15:25;17.00;53.50
488;DHT22;16586;48.976;9.584;2023-02-23T13:17:58;18.80;56.50
488;DHT22;16586;48.976;9.584;2023-02-23T13:20:32;18.60;54.10
488;DHT22;16586;48.976;9.584;2023-02-23T13:23:09;17.90;52.60
488;DHT22;16586;48.976;9.584;2023-02-23T13:25:45;18.30;51.20
488;DHT22;16586;48.976;9.584;2023-02-23T13:28:30;18.30;51.30
488;DHT22;16586;48.976;9.584;2023-02-23T13:31:03;18.00;51.10
488;DHT22;16586;48.976;9.584;2023-02-23T13:33:34;18.10;50.80
488;DHT22;16586;48.976;9.584;2023-02-23T13:36:07;17.90;50.80
488;DHT22;16586;48.976;9.584;2023-02-23T13:38:45;18.10;50.40
488;DHT22;16586;48.976;9.584;2023-02-23T13:41:26;18.00;50.50
488;DHT22;16586;48.976;9.584;2023-02-23T13:44:13;17.60;50.30
488;DHT22;16586;48.976;9.584;2023-02-23T13:46:48;17.40;50.70
488;DHT22;16586;48.976;9.584;2023-02-23T13:49:25;17.10;50.90
488;DHT22;16586;48.976;9.584;2023-02-23T13:52:07;17.00;52.10
488;DHT22;16586;48.976;9.584;2023-02-23T13:54:37;16.60;52.20
488;DHT22;16586;48.976;9.584;2023-02-23T13:57:16;16.60;52.50
488;DHT22;16586;48.976;9.584;2023-02-23T13:59:45;16.40;52.30
488;DHT22;16586;48.976;9.584;2023-02-23T14:02:24;16.50;53.10
488;DHT22;16586;48.976;9.584;2023-02-23T14:05:01;17.30;54.80
488;DHT22;16586;48.976;9.584;2023-02-23T14:07:30;16.10;52.40
488;DHT22;16586;48.976;9.584;2023-02-23T14:10:00;16.00;52.20
488;DHT22;16586;48.976;9.584;2023-02-23T14:12:33;16.00;55.30
488;DHT22;16586;48.976;9.584;2023-02-23T14:15:28;16.20;54.60
488;DHT22;16586;48.976;9.584;2023-02-23T14:18:29;16.10;53.20
488;DHT22;16586;48.976;9.584;2023-02-23T14:21:10;16.00;53.20
488;DHT22;16586;48.976;9.584;2023-02-23T14:23:53;16.00;53.40
488;DHT22;16586;48.976;9.584;2023-02-23T14:26:41;15.50;54.00
488;DHT22;16586;48.976;9.584;2023-02-23T14:29:27;16.80;54.50
488;DHT22;16586;48.976;9.584;2023-02-23T14:32:26;16.20;54.50
488;DHT22;16586;48.976;9.584;2023-02-23T14:34:55;16.50;52.80
488;DHT22;16586;48.976;9.584;2023-02-23T14:37:24;16.20;53.40
488;DHT22;16586;48.976;9.584;2023-02-23T14:39:54;17.00;55.40
488;DHT22;16586;48.976;9.584;2023-02-23T14:42:23;15.90;55.40
488;DHT22;16586;48.976;9.584;2023-02-23T14:44:52;15.90;54.90
488;DHT22;16586;48.976;9.584;2023-02-23T14:47:45;15.90;53.10
488;DHT22;16586;48.976;9.584;2023-02-23T14:50:24;15.90;54.90
488;DHT22;16586;48.976;9.584;2023-02-23T14:52:53;16.50;55.00
488;DHT22;16586;48.976;9.584;2023-02-23T14:55:24;15.80;54.00
488;DHT22;16586;48.976;9.584;2023-02-23T14:57:51;15.90;54.30
488;DHT22;16586;48.976;9.584;2023-02-23T15:00:21;16.00;56.40
488;DHT22;16586;48.976;9.584;2023-02-23T15:02:57;15.70;54.10
488;DHT22;16586;48.976;9.584;2023-02-23T15:05:27;15.80;56.20
488;DHT22;16586;48.976;9.584;2023-02-23T15:07:57;15.70;54.50
488;DHT22;16586;48.976;9.584;2023-02-23T15:10:28;15.70;55.10
488;DHT22;16586;48.976;9.584;2023-02-23T15:12:56;15.90;56.70
488;DHT22;16586;48.976;9.584;2023-02-23T15:15:25;15.50;54.60
488;DHT22;16586;48.976;9.584;2023-02-23T15:17:54;14.30;53.50
488;DHT22;16586;48.976;9.584;2023-02-23T15:20:26;16.40;56.50
488;DHT22;16586;48.976;9.584;2023-02-23T15:23:20;15.30;56.10
488;DHT22;16586;48.976;9.584;2023-02-23T15:25:47;14.80;55.00
488;DHT22;16586;48.976;9.584;2023-02-23T15:28:21;16.00;56.10
488;DHT22;16586;48.976;9.584;2023-02-23T15:30:51;15.00;56.80
488;DHT22;16586;48.976;9.584;2023-02-23T15:33:20;15.20;55.60
488;DHT22;16586;48.976;9.584;2023-02-23T15:36:05;15.20;54.90
488;DHT22;16586;48.976;9.584;2023-02-23T15:38:34;15.50;57.00
488;DHT22;16586;48.976;9.584;2023-02-23T15:41:08;15.00;56.70
488;DHT22;16586;48.976;9.584;2023-02-23T15:43:41;15.00;55.00
488;DHT22;16586;48.976;9.584;2023-02-23T15:46:17;15.00;54.50
488;DHT22;16586;48.976;9.584;2023-02-23T15:48:50;15.00;54.80
488;DHT22;16586;48.976;9.584;2023-02-23T15:51:23;14.90;55.40
488;DHT22;16586;48.976;9.584;2023-02-23T15:53:55;14.80;56.90
488;DHT22;16586;48.976;9.584;2023-02-23T15:56:25;14.80;57.20
488;DHT22;16586;48.976;9.584;2023-02-23T15:58:55;15.00;56.70
488;DHT22;16586;48.976;9.584;2023-02-23T16:01:24;14.90;56.60
488;DHT22;16586;48.976;9.584;2023-02-23T16:03:58;15.00;55.30
488;DHT22;16586;48.976;9.584;2023-02-23T16:06:31;14.80;56.40
488;DHT22;16586;48.976;9.584;2023-02-23T16:09:00;15.30;58.80
488;DHT22;16586;48.976;9.584;2023-02-23T16:11:32;16.10;57.90
488;DHT22;16586;48.976;9.584;2023-02-23T16:14:01;15.00;59.10
488;DHT22;16586;48.976;9.584;2023-02-23T16:16:33;14.70;57.60
488;DHT22;16586;48.976;9.584;2023-02-23T16:19:00;14.90;59.10
488;DHT22;16586;48.976;9.584;2023-02-23T16:21:31;14.90;57.20
488;DHT22;16586;48.976;9.584;2023-02-23T16:24:05;14.60;57.90
488;DHT22;16586;48.976;9.584;2023-02-23T16:26:36;15.00;60.10
488;DHT22;16586;48.976;9.584;2023-02-23T16:29:12;14.40;59.20
488;DHT22;16586;48.976;9.584;2023-02-23T16:31:44;14.90;58.50
488;DHT22;16586;48.976;9.584;2023-02-23T16:34:24;14.20;58.60
488;DHT22;16586;48.976;9.584;2023-02-23T16:36:57;14.30;59.60
488;DHT22;16586;48.976;9.584;2023-02-23T16:39:25;14.20;59.60
488;DHT22;16586;48.976;9.584;2023-02-23T16:41:54;14.30;59.00
488;DHT22;16586;48.976;9.584;2023-02-23T16:44:24;14.20;59.00
488;DHT22;16586;48.976;9.584;2023-02-23T16:47:29;14.20;58.10
488;DHT22;16586;48.976;9.584;2023-02-23T16:49:57;14.20;59.50
488;DHT22;16586;48.976;9.584;2023-02-23T16:52:25;14.70;62.10
488;DHT22;16586;48.976;9.584;2023-02-23T16:54:52;13.80;60.50
488;DHT22;16586;48.976;9.584;2023-02-23T16:57:25;13.80;60.60
488;DHT22;16586;48.976;9.584;2023-02-23T16:59:54;15.70;64.10
488;DHT22;16586;48.976;9.584;2023-02-23T17:02:22;13.70;61.40
488;DHT22;16586;48.976;9.584;2023-02-23T17:04:49;13.60;59.90
488;DHT22;16586;48.976;9.584;2023-02-23T17:07:17;14.00;61.40
488;DHT22;16586;48.976;9.584;2023-02-23T17:09:46;13.70;60.60
488;DHT22;16586;48.976;9.584;2023-02-23T17:12:14;13.70;60.10
488;DHT22;16586;48.976;9.584;2023-02-23T17:14:42;13.60;61.00
488;DHT22;16586;48.976;9.584;2023-02-23T17:17:13;13.70;61.90
488;DHT22;16586;48.976;9.584;2023-02-23T17:19:40;13.60;61.60
488;DHT22;16586;48.976;9.584;2023-02-23T17:22:07;13.60;62.40
488;DHT22;16586;48.976;9.584;2023-02-23T17:24:34;13.60;61.10
488;DHT22;16586;48.976;9.584;2023-02-23T17:27:02;13.70;63.20
488;DHT22;16586;48.976;9.584;2023-02-23T17:29:29;13.60;63.50
488;DHT22;16586;48.976;9.584;2023-02-23T17:31:55;13.60;63.90
488;DHT22;16586;48.976;9.584;2023-02-23T17:34:24;13.60;63.50
488;DHT22;16586;48.976;9.584;2023-02-23T17:36:50;13.50;64.00
488;DHT22;16586;48.976;9.584;2023-02-23T17:39:17;13.30;65.00
488;DHT22;16586;48.976;9.584;2023-02-23T17:41:44;13.30;66.00
488;DHT22;16586;48.976;9.584;2023-02-23T17:44:12;13.20;66.60
488;DHT22;16586;48.976;9.584;2023-02-23T17:46:39;13.20;68.70
488;DHT22;16586;48.976;9.584;2023-02-23T17:49:06;12.90;67.60
488;DHT22;16586;48.976;9.584;2023-02-23T17:51:32;13.40;70.10
488;DHT22;16586;48.976;9.584;2023-02-23T17:53:59;12.70;68.50
488;DHT22;16586;48.976;9.584;2023-02-23T17:56:26;13.10;69.20
488;DHT22;16586;48.976;9.584;2023-02-23T17:58:55;12.80;67.40
488;DHT22;16586;48.976;9.584;2023-02-23T18:01:23;12.80;68.70
488;DHT22;16586;48.976;9.584;2023-02-23T18:03:50;12.80;69.30
488;DHT22;16586;48.976;9.584;2023-02-23T18:06:17;12.80;68.00
488;DHT22;16586;48.976;9.584;2023-02-23T18:08:44;13.20;69.50
488;DHT22;16586;48.976;9.584;2023-02-23T18:11:11;12.60;69.00
488;DHT22;16586;48.976;9.584;2023-02-23T18:13:38;12.60;69.60
488;DHT22;16586;48.976;9.584;2023-02-23T18:16:06;12.40;68.60
488;DHT22;16586;48.976;9.584;2023-02-23T18:18:35;12.30;70.60
488;DHT22;16586;48.976;9.584;2023-02-23T18:21:08;12.30;69.00